Terminal Aerodrome Forecast
Issued by NWS

Current Version | Previous Version | Graphics & Text | Print | Product List | Glossary On
Versions: 1 2 3 4 5 6 7 8 9 10 11 12 13 14
867
FTUS41 KILN 231127
TAFLCK
TAF
KLCK 231127Z 2312/2412 09007KT P6SM FEW150
     FM231800 13010KT P6SM SCT100
     FM232200 15008KT P6SM BKN090
     FM240500 16008KT P6SM VCSH BKN070
     FM240800 17010KT P6SM BKN060 WS020/22045KT=

USA.gov is the U.S. government's official web portal to all federal, state and local government web resources and services.